LL56 weather

CLOSED Schott Airport
Pontiac, Illinois, United States

Public forecast

Using degrees Fahrenheit for public forecast. Weather courtesy of forecast.io.

METAR (pilot weather report)

Closest report is Pontiac Municipal Airport, 2.9 nm (5.4 km) NNW. Retrieved 2019/08/21 21:35 UTC (0 seconds ago):

KPNT 212135Z AUTO 00000KT 10SM SCT120 26/21 A2996 RMK AO2 T02560207

TAF (pilot weather forecast)

Closest forecast is Central Illinois Regional Airport at Bloomington-Normal, 28.5 nm (52.9 km) SSW. Retrieved 2019/08/21 18:54 UTC (2 hours ago):

TAF KBMI 211750Z 2118/2218 27009KT P6SM OVC013 TEMPO 2118/2120 SCT015 BKN025 FM212000 29008KT P6SM VCSH SCT025 BKN035 TEMPO 2120/2122 5SM -TSRA BR BKN025CB FM212300 31006KT P6SM SCT030 BKN050 FM220800 34005KT 4SM BR VCSH BKN025 FM221100 VRB04KT 3SM BR VCSH BKN009 FM221500 VRB04KT P6SM SCT022 OVC050